Data Viewer
| City | State | Eastern Time | Source | Temp | DewPt | RH | BP | 5 Min Precip | Wind Speed | Wind Dir | 5 Min Wind Max | 5 Min Wind Max Dir |
|---|---|---|---|---|---|---|---|---|---|---|---|---|
| Philadelphia | PA | 2026-05-08 20:25 | ASOS | 68 | 37 | 32 | 29.88 | 13 | WSW | |||
| Philadelphia | PA | 2026-05-09 05:35 | ASOS | 57 | 46 | 67 | 29.88 | 0 | N | |||
| Philadelphia | PA | 2026-05-09 05:00 | ASOS | 55 | 46 | 72 | 29.88 | 6 | S | |||
| Philadelphia | PA | 2026-05-09 05:05 | ASOS | 55 | 46 | 72 | 29.88 | 5 | S | |||
| Philadelphia | PA | 2026-05-09 05:10 | ASOS | 57 | 46 | 67 | 29.88 | 6 | S | |||
| Philadelphia | PA | 2026-05-09 05:15 | ASOS | 57 | 46 | 67 | 29.88 | 5 | S | |||
| Philadelphia | PA | 2026-05-09 05:20 | ASOS | 57 | 46 | 67 | 29.88 | 5 | S | |||
| Philadelphia | PA | 2026-05-09 05:25 | ASOS | 55 | 46 | 72 | 29.88 | 3 | S | |||
| Philadelphia | PA | 2026-05-09 05:30 | ASOS | 55 | 46 | 72 | 29.88 | 3 | S | |||
| Philadelphia | PA | 2026-05-09 05:40 | ASOS | 57 | 46 | 67 | 29.88 | 3 | SSE | |||
| Philadelphia | PA | 2026-05-09 04:54 | ASOS | 56 | 46 | 69 | 29.88 | 5 | S | |||
| Philadelphia | PA | 2026-05-09 05:45 | ASOS | 55 | 48 | 77 | 29.88 | 3 | SSE | |||
| Philadelphia | PA | 2026-05-09 05:50 | ASOS | 57 | 48 | 72 | 29.88 | 3 | SSE | |||
| Philadelphia | PA | 2026-05-09 05:54 | ASOS | 57 | 48 | 72 | 29.88 | 3 | SSE | |||
| Philadelphia | PA | 2026-05-09 06:00 | ASOS | 57 | 48 | 72 | 29.88 | 5 | S | |||
| Philadelphia | PA | 2026-05-09 06:05 | ASOS | 57 | 48 | 72 | 29.88 | 3 | S | |||
| Philadelphia | PA | 2026-05-09 06:10 | ASOS | 57 | 48 | 72 | 29.88 | 5 | S | |||
| Philadelphia | PA | 2026-05-09 06:15 | ASOS | 57 | 48 | 72 | 29.88 | 3 | S | |||
| Philadelphia | PA | 2026-05-09 04:55 | ASOS | 55 | 46 | 72 | 29.88 | 3 | S | |||
| Philadelphia | PA | 2026-05-09 04:50 | ASOS | 55 | 46 | 72 | 29.88 | 3 | S | |||
| Philadelphia | PA | 2026-05-09 06:25 | ASOS | 57 | 48 | 72 | 29.88 | 0 | N | |||
| Philadelphia | PA | 2026-05-09 03:50 | ASOS | 55 | 44 | 67 | 29.89 | 3 | SSE | |||
| Philadelphia | PA | 2026-05-09 03:15 | ASOS | 57 | 44 | 63 | 29.90 | 7 | S | |||
| Philadelphia | PA | 2026-05-09 03:20 | ASOS | 57 | 44 | 63 | 29.90 | 6 | S | |||
| Philadelphia | PA | 2026-05-09 03:25 | ASOS | 57 | 44 | 63 | 29.90 | 5 | S | |||
| Philadelphia | PA | 2026-05-09 03:30 | ASOS | 57 | 44 | 63 | 29.90 | 3 | S | |||
| Philadelphia | PA | 2026-05-09 03:35 | ASOS | 55 | 44 | 67 | 29.90 | 5 | SSE | |||
| Philadelphia | PA | 2026-05-09 03:40 | ASOS | 55 | 44 | 67 | 29.90 | 5 | SSE | |||
| Philadelphia | PA | 2026-05-09 03:45 | ASOS | 55 | 44 | 67 | 29.90 | 5 | SSE | |||
| Philadelphia | PA | 2026-05-09 03:54 | ASOS | 56 | 44 | 64 | 29.89 | 5 | SE | |||
| Philadelphia | PA | 2026-05-09 04:45 | ASOS | 55 | 46 | 72 | 29.89 | 3 | S | |||
| Philadelphia | PA | 2026-05-09 04:00 | ASOS | 55 | 44 | 67 | 29.89 | 5 | SSE | |||
| Philadelphia | PA | 2026-05-09 04:05 | ASOS | 55 | 44 | 67 | 29.89 | 5 | SE | |||
| Philadelphia | PA | 2026-05-09 04:15 | ASOS | 55 | 44 | 67 | 29.89 | 3 | SSE | |||
| Philadelphia | PA | 2026-05-09 04:20 | ASOS | 55 | 44 | 67 | 29.89 | 3 | SSE | |||
| Philadelphia | PA | 2026-05-09 04:25 | ASOS | 55 | 44 | 67 | 29.89 | 3 | SE | |||
| Philadelphia | PA | 2026-05-09 04:30 | ASOS | 55 | 44 | 67 | 29.89 | 3 | SSE | |||
| Philadelphia | PA | 2026-05-09 04:35 | ASOS | 55 | 44 | 67 | 29.88 | |||||
| Philadelphia | PA | 2026-05-09 04:40 | ASOS | 55 | 46 | 72 | 29.89 | 3 | S | |||
| Philadelphia | PA | 2026-05-09 06:20 | ASOS | 57 | 48 | 72 | 29.88 | 0 | N | |||
| Philadelphia | PA | 2026-05-09 06:30 | ASOS | 57 | 48 | 72 | 29.88 | 5 | SSW | |||
| Philadelphia | PA | 2026-05-09 03:05 | ASOS | 57 | 44 | 63 | 29.90 | 7 | S | |||
| Philadelphia | PA | 2026-05-09 09:50 | ASOS | 64 | 50 | 60 | 29.88 | 13 | SSW | |||
| Philadelphia | PA | 2026-05-09 08:54 | ASOS | 62 | 51 | 67 | 29.89 | 13 | SSW | |||
| Philadelphia | PA | 2026-05-09 08:55 | ASOS | 63 | 52 | 68 | 29.89 | 12 | SSW | |||
| Philadelphia | PA | 2026-05-09 09:05 | ASOS | 63 | 52 | 68 | 29.89 | 15 | SSW | |||
| Philadelphia | PA | 2026-05-09 09:10 | ASOS | 63 | 52 | 68 | 29.89 | 13 | SSW | |||
| Philadelphia | PA | 2026-05-09 09:15 | ASOS | 63 | 52 | 68 | 29.89 | 13 | SSW | |||
| Philadelphia | PA | 2026-05-09 09:25 | ASOS | 63 | 52 | 68 | 29.88 | 15 | SSW | |||
| Philadelphia | PA | 2026-05-09 09:40 | ASOS | 64 | 50 | 60 | 29.88 | 9 | SSW | |||
| Philadelphia | PA | 2026-05-09 10:05 | ASOS | 64 | 50 | 60 | 29.88 | 12 | SW | |||
| Philadelphia | PA | 2026-05-09 08:40 | ASOS | 63 | 52 | 68 | 29.89 | 10 | SSW | |||
| Philadelphia | PA | 2026-05-09 10:15 | ASOS | 66 | 52 | 60 | 29.88 | 12 | WSW | |||
| Philadelphia | PA | 2026-05-09 10:25 | ASOS | 66 | 50 | 56 | 29.88 | 14 | SW | |||
| Philadelphia | PA | 2026-05-09 10:40 | ASOS | 66 | 50 | 56 | 29.89 | 14 | WSW | |||
| Philadelphia | PA | 2026-05-09 10:50 | ASOS | 66 | 50 | 56 | 29.89 | 12 | SW | |||
| Philadelphia | PA | 2026-05-09 11:00 | ASOS | 66 | 50 | 56 | 29.89 | 14 | WSW | |||
| Philadelphia | PA | 2026-05-09 11:05 | ASOS | 66 | 50 | 56 | 29.89 | 13 | WSW | |||
| Philadelphia | PA | 2026-05-09 11:15 | ASOS | 66 | 50 | 56 | 29.89 | 10 | WSW | |||
| Philadelphia | PA | 2026-05-09 08:50 | ASOS | 63 | 52 | 68 | 29.89 | 9 | SSW | |||
| Philadelphia | PA | 2026-05-09 08:25 | ASOS | 61 | 52 | 72 | 29.89 | 8 | S | |||
| Philadelphia | PA | 2026-05-09 06:35 | ASOS | 59 | 48 | 67 | 29.88 | 5 | SW | |||
| Philadelphia | PA | 2026-05-09 07:15 | ASOS | 61 | 50 | 68 | 29.89 | 9 | SSW | |||
| Philadelphia | PA | 2026-05-09 06:40 | ASOS | 59 | 48 | 67 | 29.88 | 3 | SSW | |||
| Philadelphia | PA | 2026-05-09 06:45 | ASOS | 59 | 48 | 67 | 29.88 | 5 | SSW | |||
| Philadelphia | PA | 2026-05-09 06:50 | ASOS | 59 | 48 | 67 | 29.88 | 6 | SSW | |||
| Philadelphia | PA | 2026-05-09 06:54 | ASOS | 59 | 50 | 72 | 29.88 | 8 | SSW | |||
| Philadelphia | PA | 2026-05-09 07:00 | ASOS | 59 | 50 | 72 | 29.89 | 6 | SSW | |||
| Philadelphia | PA | 2026-05-09 07:05 | ASOS | 61 | 50 | 68 | 29.89 | 7 | SSW | |||
| Philadelphia | PA | 2026-05-09 07:10 | ASOS | 61 | 50 | 68 | 29.89 | 8 | SSW | |||
| Philadelphia | PA | 2026-05-09 07:20 | ASOS | 61 | 50 | 68 | 29.89 | 6 | SSW | |||
| Philadelphia | PA | 2026-05-09 08:20 | ASOS | 61 | 52 | 72 | 29.89 | 12 | SSW | |||
| Philadelphia | PA | 2026-05-09 07:25 | ASOS | 61 | 50 | 68 | 29.89 | 7 | SSW | |||
| Philadelphia | PA | 2026-05-09 07:30 | ASOS | 61 | 50 | 68 | 29.89 | 8 | S | |||
| Philadelphia | PA | 2026-05-09 07:35 | ASOS | 61 | 52 | 72 | 29.89 | 9 | S | |||
| Philadelphia | PA | 2026-05-09 07:40 | ASOS | 61 | 52 | 72 | 29.89 | 9 | S | |||
| Philadelphia | PA | 2026-05-09 07:50 | ASOS | 61 | 52 | 72 | 29.89 | 10 | S | |||
| Philadelphia | PA | 2026-05-09 07:54 | ASOS | 60 | 51 | 72 | 29.89 | 8 | S | |||
| Philadelphia | PA | 2026-05-09 08:05 | ASOS | 61 | 52 | 72 | 29.88 | 9 | SSW | |||
| Philadelphia | PA | 2026-05-09 08:15 | ASOS | 61 | 52 | 72 | 29.89 | 9 | S | |||
| Philadelphia | PA | 2026-05-09 03:10 | ASOS | 57 | 44 | 63 | 29.90 | 8 | S | |||
| Philadelphia | PA | 2026-05-09 03:00 | ASOS | 57 | 44 | 63 | 29.90 | 7 | S | |||
| Philadelphia | PA | 2026-05-08 20:30 | ASOS | 66 | 37 | 35 | 29.88 | 12 | WSW | |||
| Philadelphia | PA | 2026-05-08 22:54 | ASOS | 64 | 41 | 43 | 29.91 | 10 | SSW | |||
| Philadelphia | PA | 2026-05-08 22:20 | ASOS | 64 | 39 | 39 | 29.92 | 14 | SSW | |||
| Philadelphia | PA | 2026-05-08 22:25 | ASOS | 64 | 39 | 39 | 29.92 | 17 | SW | |||
| Philadelphia | PA | 2026-05-08 22:30 | ASOS | 64 | 39 | 39 | 29.92 | 12 | SSW | |||
| Philadelphia | PA | 2026-05-08 22:35 | ASOS | 64 | 39 | 39 | 29.92 | 13 | SW | |||
| Philadelphia | PA | 2026-05-08 22:40 | ASOS | 64 | 41 | 42 | 29.92 | 9 | SSW | |||
| Philadelphia | PA | 2026-05-08 22:45 | ASOS | 64 | 41 | 42 | 29.91 | 9 | SSW | |||
| Philadelphia | PA | 2026-05-08 22:50 | ASOS | 64 | 41 | 42 | 29.91 | 9 | SSW | |||
| Philadelphia | PA | 2026-05-08 22:55 | ASOS | 64 | 41 | 42 | 29.91 | 10 | S | |||
| Philadelphia | PA | 2026-05-08 22:10 | ASOS | 64 | 41 | 42 | 29.92 | 13 | SW | |||
| Philadelphia | PA | 2026-05-08 23:00 | ASOS | 64 | 41 | 42 | 29.92 | 10 | SSW | |||
| Philadelphia | PA | 2026-05-08 23:05 | ASOS | 64 | 39 | 39 | 29.92 | 9 | SSW | |||
| Philadelphia | PA | 2026-05-08 23:10 | ASOS | 64 | 39 | 39 | 29.92 | 9 | SSW | |||
| Philadelphia | PA | 2026-05-08 23:15 | ASOS | 64 | 39 | 39 | 29.92 | 9 | SSW | |||
| Philadelphia | PA | 2026-05-08 23:20 | ASOS | 64 | 39 | 39 | 29.92 | 13 | SW | |||
| Philadelphia | PA | 2026-05-08 23:25 | ASOS | 64 | 39 | 39 | 29.92 | 14 | SW | |||
| Philadelphia | PA | 2026-05-08 23:30 | ASOS | 64 | 39 | 39 | 29.92 | 14 | SSW | |||
| Philadelphia | PA | 2026-05-08 22:15 | ASOS | 64 | 41 | 42 | 29.92 | 14 | SSW | |||
| Philadelphia | PA | 2026-05-08 22:05 | ASOS | 64 | 39 | 39 | 29.92 | 16 | SW | |||
| Philadelphia | PA | 2026-05-08 23:40 | ASOS | 63 | 39 | 42 | 29.92 | 8 | SSW | |||
| Philadelphia | PA | 2026-05-08 21:05 | ASOS | 66 | 39 | 37 | 29.89 | 10 | SW | |||
| Philadelphia | PA | 2026-05-08 20:35 | ASOS | 66 | 37 | 35 | 29.88 | 10 | SW | |||
| Philadelphia | PA | 2026-05-08 20:40 | ASOS | 66 | 39 | 37 | 29.88 | 12 | WSW | |||
| Philadelphia | PA | 2026-05-08 20:45 | ASOS | 66 | 39 | 37 | 29.88 | 10 | WSW | |||
| Philadelphia | PA | 2026-05-08 20:50 | ASOS | 66 | 39 | 37 | 29.89 | 10 | SW | |||
| Philadelphia | PA | 2026-05-08 20:54 | ASOS | 67 | 39 | 36 | 29.89 | 12 | SW | |||
| Philadelphia | PA | 2026-05-08 20:55 | ASOS | 66 | 39 | 37 | 29.89 | 12 | SW | |||
| Philadelphia | PA | 2026-05-08 21:00 | ASOS | 66 | 39 | 37 | 29.89 | 12 | SW | |||
| Philadelphia | PA | 2026-05-08 21:10 | ASOS | 66 | 39 | 37 | 29.90 | 10 | SW | |||
| Philadelphia | PA | 2026-05-08 22:00 | ASOS | 64 | 39 | 39 | 29.92 | 15 | SW | |||
| Philadelphia | PA | 2026-05-08 21:15 | ASOS | 66 | 39 | 37 | 29.90 | 14 | SW | |||
| Philadelphia | PA | 2026-05-08 21:20 | ASOS | 66 | 39 | 37 | 29.90 | 14 | SW | |||
| Philadelphia | PA | 2026-05-08 21:25 | ASOS | 66 | 39 | 37 | 29.90 | 12 | SW | |||
| Philadelphia | PA | 2026-05-08 21:35 | ASOS | 66 | 39 | 37 | 29.91 | 13 | SSW | |||
| Philadelphia | PA | 2026-05-08 21:40 | ASOS | 66 | 41 | 40 | 29.91 | 9 | SSW | |||
| Philadelphia | PA | 2026-05-08 21:45 | ASOS | 66 | 41 | 40 | 29.91 | 12 | SSW | |||
| Philadelphia | PA | 2026-05-08 21:50 | ASOS | 66 | 41 | 40 | 29.91 | 9 | SSW | |||
| Philadelphia | PA | 2026-05-08 21:54 | ASOS | 65 | 41 | 42 | 29.91 | 14 | SSW | |||
| Philadelphia | PA | 2026-05-08 23:35 | ASOS | 63 | 39 | 42 | 29.92 | 14 | SW | |||
| Philadelphia | PA | 2026-05-08 23:45 | ASOS | 63 | 39 | 42 | 29.92 | 9 | SSW | |||
| Philadelphia | PA | 2026-05-09 02:55 | ASOS | 57 | 44 | 63 | 29.90 | 8 | S | |||
| Philadelphia | PA | 2026-05-09 02:15 | ASOS | 57 | 44 | 63 | 29.91 | 7 | S | |||
| Philadelphia | PA | 2026-05-09 01:45 | ASOS | 61 | 43 | 51 | 29.91 | 6 | S | |||
| Philadelphia | PA | 2026-05-09 01:50 | ASOS | 59 | 43 | 55 | 29.91 | 6 | S | |||
| Philadelphia | PA | 2026-05-09 01:54 | ASOS | 59 | 43 | 55 | 29.91 | 7 | S | |||
| Philadelphia | PA | 2026-05-09 01:55 | ASOS | 59 | 43 | 55 | 29.91 | 8 | S | |||
| Philadelphia | PA | 2026-05-09 02:00 | ASOS | 59 | 43 | 55 | 29.91 | 8 | S | |||
| Philadelphia | PA | 2026-05-09 02:05 | ASOS | 59 | 44 | 59 | 29.91 | 8 | S | |||
| Philadelphia | PA | 2026-05-09 02:10 | ASOS | 57 | 44 | 63 | 29.91 | 7 | S | |||
| Philadelphia | PA | 2026-05-09 02:20 | ASOS | 59 | 44 | 59 | 29.91 | 7 | S | |||
| Philadelphia | PA | 2026-05-09 01:35 | ASOS | 61 | 43 | 51 | 29.92 | 7 | S | |||
| Philadelphia | PA | 2026-05-09 02:25 | ASOS | 59 | 44 | 59 | 29.91 | 7 | S | |||
| Philadelphia | PA | 2026-05-09 02:30 | ASOS | 57 | 44 | 63 | 29.91 | 8 | S | |||
| Philadelphia | PA | 2026-05-09 02:35 | ASOS | 57 | 44 | 63 | 29.91 | 7 | S | |||
| Philadelphia | PA | 2026-05-09 02:40 | ASOS | 57 | 44 | 63 | 29.91 | 7 | S | |||
| Philadelphia | PA | 2026-05-09 02:45 | ASOS | 57 | 44 | 63 | 29.90 | 9 | S | |||
| Philadelphia | PA | 2026-05-09 02:50 | ASOS | 57 | 44 | 63 | 29.90 | 8 | S | |||
| Philadelphia | PA | 2026-05-09 02:54 | ASOS | 58 | 44 | 60 | 29.90 | 8 | S | |||
| Philadelphia | PA | 2026-05-09 01:40 | ASOS | 61 | 43 | 51 | 29.92 | 7 | S | |||
| Philadelphia | PA | 2026-05-09 01:30 | ASOS | 61 | 43 | 51 | 29.92 | 7 | S | |||
| Philadelphia | PA | 2026-05-08 23:54 | ASOS | 63 | 40 | 43 | 29.92 | 9 | SSW | |||
| Philadelphia | PA | 2026-05-09 00:35 | ASOS | 63 | 41 | 45 | 29.92 | 9 | SSW | |||
| Philadelphia | PA | 2026-05-09 00:00 | ASOS | 63 | 39 | 42 | 29.92 | 9 | SSW | |||
| Philadelphia | PA | 2026-05-09 00:05 | ASOS | 63 | 39 | 42 | 29.92 | 9 | SSW | |||
| Philadelphia | PA | 2026-05-09 00:10 | ASOS | 63 | 39 | 42 | 29.92 | 12 | SSW | |||
| Philadelphia | PA | 2026-05-09 00:15 | ASOS | 63 | 41 | 45 | 29.92 | 10 | SSW | |||
| Philadelphia | PA | 2026-05-09 00:20 | ASOS | 63 | 39 | 42 | 29.92 | 9 | SSW | |||
| Philadelphia | PA | 2026-05-09 00:25 | ASOS | 63 | 41 | 45 | 29.92 | 9 | S | |||
| Philadelphia | PA | 2026-05-09 00:30 | ASOS | 63 | 41 | 45 | 29.92 | 8 | SSW | |||
| Philadelphia | PA | 2026-05-09 00:40 | ASOS | 63 | 41 | 45 | 29.92 | 10 | SSW | |||
| Philadelphia | PA | 2026-05-09 01:25 | ASOS | 61 | 43 | 51 | 29.92 | 7 | S | |||
| Philadelphia | PA | 2026-05-09 00:45 | ASOS | 63 | 43 | 48 | 29.93 | 9 | SSW | |||
| Philadelphia | PA | 2026-05-09 00:50 | ASOS | 61 | 43 | 51 | 29.92 | 8 | SSW | |||
| Philadelphia | PA | 2026-05-09 00:54 | ASOS | 61 | 42 | 50 | 29.92 | 8 | SSW | |||
| Philadelphia | PA | 2026-05-09 00:55 | ASOS | 61 | 43 | 51 | 29.92 | 7 | SSW | |||
| Philadelphia | PA | 2026-05-09 01:05 | ASOS | 61 | 43 | 51 | 29.92 | 8 | SSW | |||
| Philadelphia | PA | 2026-05-09 01:10 | ASOS | 61 | 43 | 51 | 29.92 | 9 | SSW | |||
| Philadelphia | PA | 2026-05-09 01:15 | ASOS | 61 | 43 | 51 | 29.92 | 9 | SSW | |||
| Philadelphia | PA | 2026-05-09 01:20 | ASOS | 61 | 43 | 51 | 29.92 | 7 | SSW | |||
| Philadelphia | PA | 2026-05-09 14:50 | ASOS | 63 | 48 | 59 | 29.85 | 14 | N |
data collection created in 0.027118921279907 (queried in 0.008482) rendered in: 0.00026988983154297

